createdAt,value
2017-10-26T05:05:16.210Z,96.60
2017-10-26T05:07:44.628Z,96.80
2017-10-26T05:10:13.042Z,96.60
2017-10-26T05:12:41.483Z,96.60
2017-10-26T05:15:10.674Z,96.50
2017-10-26T05:17:39.923Z,96.50
2017-10-26T05:20:08.354Z,96.50
2017-10-26T05:22:37.544Z,96.30
2017-10-26T05:25:06.747Z,96.20
2017-10-26T05:27:35.942Z,96.50
2017-10-26T05:30:05.122Z,96.90
2017-10-26T05:32:33.536Z,96.50
2017-10-26T05:35:01.981Z,96.50
2017-10-26T05:37:31.179Z,96.70
2017-10-26T05:39:59.241Z,96.70
2017-10-26T05:42:27.677Z,96.80
2017-10-26T05:44:56.099Z,96.70
2017-10-26T05:47:24.530Z,96.60
2017-10-26T05:49:52.975Z,96.60
2017-10-26T05:52:22.167Z,96.80
2017-10-26T05:54:51.155Z,96.90
2017-10-26T05:57:20.361Z,97.50
2017-10-26T05:59:49.535Z,97.60
2017-10-26T06:02:17.954Z,97.60
2017-10-26T06:04:46.380Z,97.80
2017-10-26T06:07:14.789Z,97.90
2017-10-26T06:09:43.971Z,98.00
2017-10-26T06:12:12.059Z,98.00
2017-10-26T06:14:41.234Z,98.00
2017-10-26T06:17:09.650Z,98.00
2017-10-26T06:19:38.072Z,97.90
2017-10-26T06:22:06.487Z,97.90
2017-10-26T06:24:35.688Z,97.80
2017-10-26T06:27:04.879Z,97.90
2017-10-26T06:29:34.068Z,98.00
2017-10-26T06:32:02.484Z,97.90
2017-10-26T06:34:30.926Z,97.90
2017-10-26T06:36:59.942Z,97.90
2017-10-26T06:39:28.374Z,97.80
2017-10-26T06:41:56.804Z,97.80
2017-10-26T06:44:25.214Z,97.70
2017-10-26T06:46:53.627Z,97.70
2017-10-26T06:49:22.658Z,97.80
2017-10-26T06:51:51.065Z,97.60
2017-10-26T06:54:19.469Z,97.40
2017-10-26T06:56:47.716Z,96.80
2017-10-26T06:59:16.146Z,96.70
2017-10-26T07:01:45.327Z,96.50
2017-10-26T07:04:13.579Z,96.50
2017-10-26T07:06:41.643Z,96.30
2017-10-26T07:09:10.069Z,95.90
2017-10-26T07:11:39.261Z,94.90
2017-10-26T07:14:07.689Z,94.90
2017-10-26T07:16:36.119Z,94.40
2017-10-26T07:19:05.311Z,93.70
2017-10-26T07:21:33.723Z,94.10
2017-10-26T07:24:02.148Z,92.80
2017-10-26T07:26:30.566Z,91.50
2017-10-26T07:28:58.975Z,90.30
2017-10-26T07:31:27.038Z,89.40
2017-10-26T07:33:55.458Z,87.80
2017-10-26T07:36:23.876Z,86.40
2017-10-26T07:38:52.294Z,85.00
2017-10-26T07:41:20.736Z,84.40
2017-10-26T07:43:49.142Z,82.60
2017-10-26T07:46:17.205Z,79.10
2017-10-26T07:48:45.640Z,77.20
2017-10-26T07:51:14.833Z,74.10
2017-10-26T07:53:44.005Z,71.70
2017-10-26T07:56:12.091Z,71.70
2017-10-26T07:58:40.497Z,71.80
2017-10-26T08:01:08.563Z,68.90
2017-10-26T08:03:37.749Z,62.80
2017-10-26T08:06:06.919Z,66.40
2017-10-26T08:08:35.333Z,66.40
2017-10-26T08:11:04.016Z,61.60
2017-10-26T08:13:33.210Z,61.70
2017-10-26T08:16:02.041Z,63.40
2017-10-26T08:18:30.129Z,63.30
2017-10-26T08:20:58.882Z,63.30
2017-10-26T08:23:26.593Z,63.30
2017-10-26T08:25:55.029Z,61.80
2017-10-26T08:28:23.445Z,63.60
2017-10-26T08:30:53.598Z,63.10
2017-10-26T08:33:22.803Z,68.50
2017-10-26T08:35:51.206Z,68.40
2017-10-26T08:38:19.636Z,70.50
2017-10-26T08:40:48.485Z,73.00
2017-10-26T08:43:16.903Z,72.90
2017-10-26T08:45:46.080Z,72.30
2017-10-26T08:48:14.493Z,71.50
2017-10-26T08:50:42.974Z,70.00
2017-10-26T08:53:11.454Z,70.50
2017-10-26T08:55:39.201Z,70.50
2017-10-26T08:58:08.030Z,66.00
2017-10-26T09:00:36.096Z,66.00
2017-10-26T09:03:04.364Z,62.00
2017-10-26T09:05:32.428Z,58.90
2017-10-26T09:08:00.148Z,54.60
2017-10-26T09:10:28.226Z,52.30
2017-10-26T09:12:55.953Z,49.60
2017-10-26T09:15:23.478Z,49.50
2017-10-26T09:17:51.232Z,49.90
2017-10-26T09:20:19.722Z,49.20
2017-10-26T09:22:47.790Z,49.20
2017-10-26T09:25:16.292Z,53.00
2017-10-26T09:27:43.997Z,53.00
2017-10-26T09:30:11.530Z,54.20
2017-10-26T09:32:39.088Z,53.50
2017-10-26T09:35:06.795Z,52.20
2017-10-26T09:37:35.296Z,54.40
2017-10-26T09:40:04.169Z,54.40
2017-10-26T09:42:33.359Z,52.30
2017-10-26T09:45:01.843Z,49.40
2017-10-26T09:47:30.678Z,47.30
2017-10-26T09:49:59.098Z,47.30
2017-10-26T09:52:27.154Z,46.10
2017-10-26T09:54:54.892Z,47.10
2017-10-26T09:57:22.968Z,44.80
2017-10-26T09:59:50.683Z,44.30
2017-10-26T10:02:19.196Z,45.70
2017-10-26T10:04:47.267Z,45.70
2017-10-26T10:07:15.098Z,46.30
2017-10-26T10:09:43.613Z,47.00
2017-10-26T10:12:11.329Z,47.00
2017-10-26T10:14:39.835Z,45.60
2017-10-26T10:17:07.566Z,45.50
2017-10-26T10:19:35.291Z,45.70
2017-10-26T10:22:03.011Z,47.20
2017-10-26T10:24:31.846Z,45.20
2017-10-26T10:26:59.563Z,45.10
2017-10-26T10:29:27.274Z,43.10
2017-10-26T10:31:55.012Z,44.90
2017-10-26T10:34:23.083Z,47.30
2017-10-26T10:36:50.795Z,49.10
2017-10-26T10:39:18.522Z,50.80
2017-10-26T10:41:46.234Z,53.30
2017-10-26T10:44:14.525Z,54.50
2017-10-26T10:46:42.084Z,54.50
2017-10-26T10:49:10.357Z,55.90
2017-10-26T10:51:38.770Z,56.00
2017-10-26T10:54:06.847Z,55.80
2017-10-26T10:56:34.565Z,55.30
2017-10-26T10:59:07.719Z,57.40
2017-10-26T11:01:35.454Z,55.30
2017-10-26T11:04:03.174Z,56.30
2017-10-26T11:06:32.012Z,56.30
2017-10-26T11:08:59.747Z,56.30
2017-10-26T11:11:27.488Z,55.50
2017-10-26T11:13:55.967Z,55.90
2017-10-26T11:16:24.473Z,55.70
2017-10-26T11:18:52.196Z,55.70
2017-10-26T11:21:20.675Z,55.10
2017-10-26T11:23:49.198Z,55.40
2017-10-26T11:26:17.718Z,55.40
2017-10-26T11:28:45.438Z,58.90
2017-10-26T11:31:13.168Z,58.70
2017-10-26T11:33:41.650Z,59.10
2017-10-26T11:36:10.119Z,59.80
2017-10-26T11:38:38.974Z,58.80
2017-10-26T11:41:07.034Z,58.80
2017-10-26T11:43:34.758Z,59.70
2017-10-26T11:46:03.453Z,59.30
2017-10-26T11:48:31.180Z,59.30
2017-10-26T11:50:59.253Z,58.70
2017-10-26T11:53:27.354Z,58.80
2017-10-26T11:55:55.141Z,60.50
2017-10-26T11:58:23.202Z,60.50
2017-10-26T12:00:50.949Z,60.40
2017-10-26T12:03:18.583Z,60.80
2017-10-26T12:05:46.691Z,61.70
2017-10-26T12:08:14.418Z,61.70
2017-10-26T12:10:42.473Z,63.20
2017-10-26T12:13:10.538Z,62.70
2017-10-26T12:15:38.272Z,61.90
2017-10-26T12:18:06.002Z,63.80
2017-10-26T12:20:34.833Z,62.10
2017-10-26T12:23:02.951Z,62.10
2017-10-26T12:25:31.446Z,63.40
2017-10-26T12:27:58.969Z,63.20
2017-10-26T12:30:26.505Z,63.60
2017-10-26T12:32:54.039Z,63.50
2017-10-26T12:35:21.583Z,62.50
2017-10-26T12:37:49.322Z,63.70
2017-10-26T12:40:18.578Z,62.60
2017-10-26T12:42:46.301Z,62.50
2017-10-26T12:45:15.146Z,65.60
2017-10-26T12:47:42.869Z,65.60
2017-10-26T12:50:11.116Z,65.30
2017-10-26T12:52:39.950Z,64.00
2017-10-26T12:55:07.672Z,64.00
2017-10-26T12:57:36.504Z,65.70
2017-10-26T13:00:04.245Z,65.60
2017-10-26T13:02:31.973Z,65.90
2017-10-26T13:05:00.470Z,65.30
2017-10-26T13:07:29.142Z,65.30
2017-10-26T13:09:57.972Z,65.80
2017-10-26T13:12:25.699Z,65.80
2017-10-26T13:14:54.591Z,66.30
2017-10-26T13:17:23.751Z,66.80
2017-10-26T13:19:51.478Z,66.80
2017-10-26T13:22:19.218Z,67.00
2017-10-26T13:24:46.943Z,66.30
2017-10-26T13:27:14.682Z,66.90
2017-10-26T13:29:43.964Z,66.80
2017-10-26T13:32:12.122Z,67.60
2017-10-26T13:34:40.538Z,68.00
2017-10-26T13:37:08.962Z,68.20
2017-10-26T13:39:37.819Z,68.70
2017-10-26T13:42:07.743Z,69.30
2017-10-26T13:44:36.810Z,69.20
2017-10-26T13:47:05.227Z,68.70
2017-10-26T13:49:34.403Z,69.30
2017-10-26T13:52:02.916Z,69.20
2017-10-26T13:54:31.323Z,68.60
2017-10-26T13:56:59.738Z,69.50
2017-10-26T13:59:29.037Z,68.80
2017-10-26T14:01:56.745Z,69.60
2017-10-26T14:04:25.224Z,69.20
2017-10-26T14:06:53.637Z,69.40
2017-10-26T14:09:22.607Z,69.50
2017-10-26T14:11:51.025Z,71.00
2017-10-26T14:14:20.612Z,69.70
2017-10-26T14:16:49.025Z,69.70
2017-10-26T14:19:17.433Z,69.90
2017-10-26T14:21:45.854Z,69.40
2017-10-26T14:24:14.266Z,69.80
2017-10-26T14:26:43.443Z,71.70
2017-10-26T14:29:11.882Z,71.60
2017-10-26T14:31:40.301Z,71.20
2017-10-26T14:34:08.528Z,72.50
2017-10-26T14:36:36.954Z,72.00
2017-10-26T14:39:04.518Z,72.70
2017-10-26T14:41:33.106Z,72.40
2017-10-26T14:44:01.523Z,72.80
2017-10-26T14:46:29.933Z,72.60
2017-10-26T14:48:58.362Z,72.90
2017-10-26T14:51:26.814Z,73.40
2017-10-26T14:53:55.230Z,73.80
2017-10-26T14:56:23.639Z,74.40
2017-10-26T14:58:52.071Z,74.60
2017-10-26T15:01:21.251Z,75.20
2017-10-26T15:03:49.675Z,75.00
2017-10-26T15:06:18.974Z,75.60
2017-10-26T15:08:47.388Z,76.30
2017-10-26T15:11:15.803Z,76.90
2017-10-26T15:13:45.044Z,78.10
2017-10-26T15:16:13.457Z,78.00
2017-10-26T15:18:41.883Z,77.80
2017-10-26T15:21:10.323Z,78.40
2017-10-26T15:23:38.724Z,77.50
2017-10-26T15:26:07.897Z,78.00
2017-10-26T15:28:36.697Z,78.00
2017-10-26T15:31:05.876Z,78.50
2017-10-26T15:33:34.460Z,78.50
2017-10-26T15:36:02.900Z,79.70
2017-10-26T15:38:31.309Z,80.60
2017-10-26T15:40:59.726Z,80.80
2017-10-26T15:43:28.151Z,81.10
2017-10-26T15:45:56.558Z,81.20
2017-10-26T15:48:25.750Z,83.00
2017-10-26T15:50:54.186Z,83.00
2017-10-26T15:53:22.606Z,83.40
2017-10-26T15:55:51.789Z,85.30
2017-10-26T15:58:19.888Z,85.20
2017-10-26T16:00:49.062Z,86.30
2017-10-26T16:03:17.721Z,86.20
2017-10-26T16:05:46.344Z,86.60
2017-10-26T16:08:15.528Z,88.10
2017-10-26T16:10:44.048Z,88.10
2017-10-26T16:13:12.490Z,88.00
2017-10-26T16:15:41.473Z,88.80
2017-10-26T16:18:09.921Z,89.30
2017-10-26T16:20:38.339Z,89.80
2017-10-26T16:23:06.746Z,90.10
2017-10-26T16:25:35.921Z,90.50
2017-10-26T16:28:05.112Z,90.70
2017-10-26T16:30:33.522Z,90.70
2017-10-26T16:33:01.934Z,91.00
2017-10-26T16:35:30.363Z,91.30
2017-10-26T16:37:59.543Z,91.80
2017-10-26T16:40:27.957Z,91.80
2017-10-26T16:42:56.389Z,91.80
2017-10-26T16:45:24.806Z,92.00
2017-10-26T16:47:54.006Z,92.20
2017-10-26T16:50:22.447Z,92.20
2017-10-26T16:52:50.882Z,92.40
2017-10-26T16:55:19.298Z,92.60
2017-10-26T16:57:47.745Z,92.90
2017-10-26T17:00:16.446Z,93.10
2017-10-26T17:02:45.044Z,93.20
2017-10-26T17:05:13.498Z,93.40
2017-10-26T17:07:41.926Z,93.30
2017-10-26T17:10:11.264Z,93.60
2017-10-26T17:12:39.701Z,94.10
2017-10-26T17:15:08.116Z,94.00
2017-10-26T17:17:36.809Z,94.20
2017-10-26T17:20:05.290Z,94.30
2017-10-26T17:22:33.705Z,94.40
2017-10-26T17:25:02.123Z,94.50
2017-10-26T17:27:30.788Z,94.70
2017-10-26T17:29:59.207Z,94.60
2017-10-26T17:32:27.619Z,95.00
2017-10-26T17:34:56.061Z,94.70
2017-10-26T17:37:24.493Z,95.00
2017-10-26T17:39:53.030Z,95.20
2017-10-26T17:42:21.514Z,95.50
2017-10-26T17:44:49.937Z,95.30
2017-10-26T17:47:18.364Z,95.40
2017-10-26T17:49:46.810Z,95.30
2017-10-26T17:52:16.015Z,95.30
2017-10-26T17:54:46.397Z,95.30
2017-10-26T17:57:14.879Z,95.30
2017-10-26T17:59:43.323Z,95.60
2017-10-26T18:02:11.806Z,95.90
2017-10-26T18:04:40.278Z,95.80
2017-10-26T18:07:08.765Z,95.70
2017-10-26T18:09:37.185Z,95.80
2017-10-26T18:12:05.624Z,95.80
2017-10-26T18:14:34.096Z,95.50
2017-10-26T18:17:02.582Z,95.80
2017-10-26T18:19:31.038Z,95.50
2017-10-26T18:21:59.450Z,96.10
2017-10-26T18:24:27.893Z,95.90
2017-10-26T18:26:57.100Z,96.00
2017-10-26T18:29:25.596Z,96.00
2017-10-26T18:31:54.025Z,96.00
2017-10-26T18:34:23.273Z,96.00
2017-10-26T18:36:51.702Z,96.10
2017-10-26T18:39:20.237Z,96.50
2017-10-26T18:41:48.691Z,96.20
2017-10-26T18:44:17.159Z,96.30
2017-10-26T18:46:46.367Z,96.30
2017-10-26T18:49:15.600Z,96.20
2017-10-26T18:51:44.051Z,96.20
2017-10-26T18:54:12.501Z,96.20
2017-10-26T18:56:40.998Z,96.30
2017-10-26T18:59:10.209Z,96.70
2017-10-26T19:01:38.666Z,96.70
2017-10-26T19:04:07.866Z,97.00
2017-10-26T19:06:36.704Z,97.00
2017-10-26T19:09:04.444Z,97.00
2017-10-26T19:11:32.570Z,96.60
2017-10-26T19:14:00.995Z,96.50
2017-10-26T19:16:29.443Z,96.60
2017-10-26T19:18:58.634Z,96.40
2017-10-26T19:21:27.058Z,96.40
2017-10-26T19:23:55.482Z,96.90
2017-10-26T19:26:23.908Z,96.80
2017-10-26T19:28:52.316Z,96.70
2017-10-26T19:31:20.755Z,97.70
2017-10-26T19:33:49.365Z,98.30
2017-10-26T19:36:18.127Z,98.10
2017-10-26T19:38:46.533Z,98.00
2017-10-26T19:41:15.103Z,97.60
2017-10-26T19:43:43.548Z,97.80
2017-10-26T19:46:12.731Z,97.50
2017-10-26T19:48:41.373Z,97.50
2017-10-26T19:51:09.799Z,98.40
2017-10-26T19:53:38.997Z,98.30
2017-10-26T19:56:08.428Z,98.30
2017-10-26T19:58:36.920Z,98.30
2017-10-26T20:01:05.347Z,98.50
2017-10-26T20:03:33.989Z,98.40
2017-10-26T20:06:02.400Z,98.50
2017-10-26T20:08:30.811Z,98.30
2017-10-26T20:11:00.003Z,98.20
2017-10-26T20:13:29.179Z,98.20
2017-10-26T20:15:57.591Z,98.50
2017-10-26T20:18:26.131Z,98.20
2017-10-26T20:20:54.549Z,98.00
2017-10-26T20:23:23.739Z,98.10
2017-10-26T20:25:53.163Z,98.10
2017-10-26T20:28:21.596Z,98.10
2017-10-26T20:30:51.333Z,97.90
2017-10-26T20:33:20.669Z,97.90
2017-10-26T20:35:49.095Z,97.90
2017-10-26T20:38:17.770Z,97.50
2017-10-26T20:40:46.428Z,97.60
2017-10-26T20:43:14.862Z,97.60
2017-10-26T20:45:44.054Z,97.60
2017-10-26T20:48:13.281Z,97.80
2017-10-26T20:51:01.246Z,97.80
2017-10-26T20:53:35.420Z,97.80
2017-10-26T20:59:12.291Z,97.80
2017-10-26T21:01:47.174Z,97.90
2017-10-26T21:04:21.255Z,97.90
2017-10-26T21:06:49.687Z,98.00
2017-10-26T21:09:23.757Z,98.00
2017-10-26T21:11:57.765Z,97.90
2017-10-26T21:14:29.213Z,97.90
2017-10-26T21:16:57.631Z,98.10
2017-10-26T21:19:26.058Z,98.00
2017-10-26T21:21:54.491Z,97.90
2017-10-26T21:24:22.916Z,98.20
2017-10-26T21:26:51.342Z,98.10
2017-10-26T21:29:19.776Z,98.10
2017-10-26T21:31:48.198Z,98.10
2017-10-26T21:34:16.622Z,97.90
2017-10-26T21:36:45.063Z,98.00
2017-10-26T21:39:13.470Z,98.00
2017-10-26T21:41:42.816Z,98.70
2017-10-26T21:44:11.245Z,98.70
2017-10-26T21:46:40.082Z,98.40
2017-10-26T21:49:08.501Z,98.40
2017-10-26T21:51:37.457Z,98.30
2017-10-26T21:54:05.887Z,98.30
2017-10-26T21:56:35.070Z,98.60
2017-10-26T21:59:03.517Z,98.60
2017-10-26T22:01:31.586Z,98.40
2017-10-26T22:03:59.999Z,98.20
2017-10-26T22:06:28.444Z,98.20
2017-10-26T22:08:56.854Z,98.30
2017-10-26T22:11:25.262Z,98.50
2017-10-26T22:13:53.681Z,98.30
2017-10-26T22:16:22.099Z,98.30
2017-10-26T22:18:51.268Z,98.20
2017-10-26T22:21:19.702Z,98.20
2017-10-26T22:23:48.222Z,98.30
2017-10-26T22:26:16.636Z,98.10
2017-10-26T22:28:45.836Z,98.10
2017-10-26T22:31:15.018Z,98.10
2017-10-26T22:33:43.500Z,98.00
2017-10-26T22:36:11.930Z,98.10
2017-10-26T22:38:40.352Z,98.20
2017-10-26T22:41:08.900Z,98.10
2017-10-26T22:43:37.340Z,98.00
2017-10-26T22:46:06.522Z,97.30
2017-10-26T22:48:35.712Z,97.40
2017-10-26T22:51:04.141Z,97.40
2017-10-26T22:53:32.558Z,97.70
2017-10-26T22:56:00.984Z,97.30
2017-10-26T22:58:29.417Z,97.20
2017-10-26T23:00:57.484Z,97.10
2017-10-26T23:03:25.911Z,97.20
2017-10-26T23:05:54.345Z,97.30
2017-10-26T23:08:22.751Z,97.30
2017-10-26T23:10:51.167Z,97.30
2017-10-26T23:13:19.604Z,97.50
2017-10-26T23:15:48.527Z,97.50
2017-10-26T23:18:16.923Z,97.50
2017-10-26T23:20:45.355Z,97.60
2017-10-26T23:23:13.771Z,97.60
2017-10-26T23:25:42.186Z,97.50
2017-10-26T23:28:10.620Z,97.30
2017-10-26T23:30:39.031Z,97.30
2017-10-26T23:33:07.442Z,97.00
2017-10-26T23:35:36.638Z,97.10
2017-10-26T23:38:05.831Z,97.10
2017-10-26T23:40:35.002Z,96.90
2017-10-26T23:43:03.429Z,96.90
2017-10-26T23:45:31.846Z,96.50
2017-10-26T23:48:00.976Z,96.30
2017-10-26T23:50:29.398Z,96.00
2017-10-26T23:52:57.798Z,96.20
2017-10-26T23:55:26.209Z,96.00
2017-10-26T23:57:54.641Z,95.60
